Home > Products > Valid Products > TAF

000
FTUS43 KDLH 290907 AAA
TAFBRD
TAF AMD
KBRD 290907Z 2909/3006 25022G35KT P6SM BKN040
     FM291500 28025G37KT P6SM BKN050
     FM300100 28012KT P6SM SKC=



000
FTUS43 KDLH 290736 AAA
TAFDLH
TAF AMD
KDLH 290736Z 2908/3006 24014G20KT P6SM SKC WS020/26050KT
     FM291200 24018G32KT P6SM BKN040
     FM291500 26022G37KT P6SM SCT030 BKN050
     FM300200 28014KT P6SM FEW050=



000
FTUS43 KDLH 290736 AAA
TAFDLH
TAF AMD
KDLH 290736Z 2908/3006 24014G20KT P6SM SKC WS020/26050KT
     FM291200 24018G32KT P6SM BKN040
     FM291500 26022G37KT P6SM SCT030 BKN050
     FM300200 28014KT P6SM FEW050=



000
FTUS43 KDLH 290538
TAFINL
TAF
KINL 290538Z 2906/3006 20012G18KT P6SM SCT060
     FM290800 23012G20KT P6SM OVC050 WS010/24040KT
     FM291200 24015G38KT P6SM -RA BKN025 OVC040
     FM291500 26020G35KT P6SM -RA OVC025
     FM292200 28018G30KT P6SM VCSH OVC050
     FM300300 30012KT P6SM SCT050=



000
FTUS43 KDLH 290538
TAFHYR
TAF
KHYR 290538Z 2906/3006 22014KT P6SM SKC WS010/26040KT
     FM291400 24012G25KT P6SM FEW050
     FM291800 26018G30KT P6SM SCT050
     FM300100 26010KT P6SM SKC=



000
FTUS43 KDLH 290538
TAFDLH
TAF
KDLH 290538Z 2906/3006 25014KT P6SM SKC WS010/25040KT
     FM291200 24014G20KT P6SM SCT050
     FM291500 26020G37KT P6SM BKN050
     FM300200 28014KT P6SM FEW050=



000
FTUS43 KDLH 290538
TAFBRD
TAF
KBRD 290538Z 2906/3006 24020KT P6SM SKC WS010/26045KT
     FM291400 26022G38KT P6SM SCT040
     FM291800 28025G35KT P6SM SCT050
     FM300100 28012KT P6SM SKC=



000
FTUS43 KDLH 290538
TAFDLH
TAF
KDLH 290538Z 2906/3006 25014KT P6SM SKC WS010/25040KT
     FM291200 24014G20KT P6SM SCT050
     FM291500 26020G37KT P6SM BKN050
     FM300200 28014KT P6SM FEW050=



000
FTUS43 KDLH 290538
TAFBRD
TAF
KBRD 290538Z 2906/3006 24020KT P6SM SKC WS010/26045KT
     FM291400 26022G38KT P6SM SCT040
     FM291800 28025G35KT P6SM SCT050
     FM300100 28012KT P6SM SKC=



000
FTUS43 KDLH 290538
TAFINL
TAF
KINL 290538Z 2906/3006 20012G18KT P6SM SCT060
     FM290800 23012G20KT P6SM OVC050 WS010/24040KT
     FM291200 24015G38KT P6SM -RA BKN025 OVC040
     FM291500 26020G35KT P6SM -RA OVC025
     FM292200 28018G30KT P6SM VCSH OVC050
     FM300300 30012KT P6SM SCT050=



000
FTUS43 KDLH 290538
TAFHYR
TAF
KHYR 290538Z 2906/3006 22014KT P6SM SKC WS010/26040KT
     FM291400 24012G25KT P6SM FEW050
     FM291800 26018G30KT P6SM SCT050
     FM300100 26010KT P6SM SKC=



000
FTUS43 KDLH 290328 AAB
TAFINL
TAF AMD
KINL 290328Z 2903/2924 22009KT P6SM FEW035 SCT060
     FM290800 23010KT P6SM OVC050 WS010/24040KT
     FM291300 24015KT P6SM -RA OVC030
     FM291600 26016G23KT P6SM -RA OVC025=



000
FTUS43 KDLH 290132 AAA
TAFHYR
TAF AMD
KHYR 290132Z 2902/2924 18007KT P6SM VCTS SCT040CB
      TEMPO 2902/2904 -TSRA SCT025 BKN040CB
     FM290400 22010KT P6SM FEW050
     FM290800 24007KT P6SM SKC WS010/26040KT
     FM291400 24014G30KT P6SM SKC=



000
FTUS43 KDLH 290131 AAA
TAFBRD
TAF AMD
KBRD 290131Z 2902/2924 25013G22KT P6SM FEW040 SCT080
     FM290500 24010KT P6SM SKC WS010/26045KT
     FM291400 26018G35KT P6SM SCT100=



000
FTUS43 KDLH 290131 AAA
TAFINL
TAF AMD
KINL 290131Z 2902/2924 25011G16KT P6SM FEW035 SCT060
     FM290800 23010KT P6SM OVC050 WS010/24040KT
     FM291300 24015KT P6SM -RA OVC030
     FM291600 26016G23KT P6SM -RA OVC025=



000
FTUS43 KDLH 282336
TAFINL
TAF
KINL 282336Z 2900/2924 22012G20KT P6SM FEW035 SCT060
     FM290800 23010KT P6SM OVC050 WS010/24040KT
     FM291300 24015KT P6SM -RA OVC030
     FM291600 26016G23KT P6SM -RA OVC025=



000
FTUS43 KDLH 282336
TAFBRD
TAF
KBRD 282336Z 2900/2924 21013G21KT P6SM FEW040 BKN080
     FM290500 24010KT P6SM SKC WS010/26045KT
     FM291400 26018G35KT P6SM SCT100=



000
FTUS43 KDLH 282336
TAFHYR
TAF
KHYR 282336Z 2900/2924 23008G14KT P6SM FEW035 SCT045
     FM290100 20012G20KT P6SM VCTS SCT040CB
      TEMPO 2901/2904 -TSRA SCT025 BKN040CB
     FM290400 22010KT P6SM FEW050
     FM290800 24007KT P6SM SKC WS010/26040KT
     FM291400 24014G30KT P6SM SKC=



000
FTUS43 KDLH 282336
TAFDLH
TAF
KDLH 282336Z 2900/2924 20012KT P6SM VCSH FEW035 BKN050
      TEMPO 2900/2902 -TSRA SCT025 BKN035CB
     FM290200 24012KT P6SM FEW050
     FM290600 25012KT P6SM SKC WS010/25040KT
     FM291400 26020G35KT P6SM SCT100=



000
FTUS43 KDLH 282336
TAFBRD
TAF
KBRD 282336Z 2900/2924 21013G21KT P6SM FEW040 BKN080
     FM290500 24010KT P6SM SKC WS010/26045KT
     FM291400 26018G35KT P6SM SCT100=



000
FTUS43 KDLH 282336
TAFINL
TAF
KINL 282336Z 2900/2924 22012G20KT P6SM FEW035 SCT060
     FM290800 23010KT P6SM OVC050 WS010/24040KT
     FM291300 24015KT P6SM -RA OVC030
     FM291600 26016G23KT P6SM -RA OVC025=



000
FTUS43 KDLH 282336
TAFDLH
TAF
KDLH 282336Z 2900/2924 20012KT P6SM VCSH FEW035 BKN050
      TEMPO 2900/2902 -TSRA SCT025 BKN035CB
     FM290200 24012KT P6SM FEW050
     FM290600 25012KT P6SM SKC WS010/25040KT
     FM291400 26020G35KT P6SM SCT100=



000
FTUS43 KDLH 282336
TAFHYR
TAF
KHYR 282336Z 2900/2924 23008G14KT P6SM FEW035 SCT045
     FM290100 20012G20KT P6SM VCTS SCT040CB
      TEMPO 2901/2904 -TSRA SCT025 BKN040CB
     FM290400 22010KT P6SM FEW050
     FM290800 24007KT P6SM SKC WS010/26040KT
     FM291400 24014G30KT P6SM SKC=



000
FTUS43 KDLH 282101 AAB
TAFDLH
TAF AMD
KDLH 282101Z 2821/2918 22014G23KT P6SM SCT030 BKN050
     FM282300 24015G24KT P6SM VCTS BKN035CB
      TEMPO 2823/2901 -TSRA SCT025 BKN035CB
     FM290200 24014G24KT P6SM FEW050
     FM290600 25010KT P6SM SKC WS010/25040KT
     FM291400 26020G35KT P6SM SKC=



000
FTUS43 KDLH 281906 AAA
TAFBRD
TAF AMD
KBRD 281906Z 2819/2918 20014G23KT P6SM SCT025 BKN035
     FM282100 22014G23KT P6SM VCSH SCT030 BKN040
      TEMPO 2821/2823 -SHRA BKN035
     FM282300 24014G24KT P6SM SKC
     FM290500 24010KT P6SM SKC WS010/26045KT
     FM291400 26018G35KT P6SM SKC=



000
FTUS43 KDLH 281904 AAA
TAFINL
TAF AMD
KINL 281904Z 2819/2918 20009G18KT P6SM BKN020 OVC050
     FM282100 21010G20KT P6SM VCSH SCT030 BKN035
      TEMPO 2821/2823 -TSRA SCT025 BKN035CB
     FM282300 21014G24KT P6SM SCT040
     FM290800 23010KT P6SM OVC050 WS010/24040KT
     FM291300 24015KT P6SM -RA OVC030=



000
FTUS43 KDLH 281901 AAA
TAFDLH
TAF AMD
KDLH 281901Z 2819/2918 23016G25KT P6SM SCT020 BKN035
      TEMPO 2819/2820 BKN020 BKN035
     FM282300 24015G24KT P6SM VCTS BKN035CB
      TEMPO 2823/2901 -TSRA SCT025 BKN035CB
     FM290200 24014G24KT P6SM FEW050
     FM290600 25010KT P6SM SKC WS010/25040KT
     FM291400 26020G35KT P6SM SKC=



000
FTUS43 KDLH 281733
TAFDLH
TAF
KDLH 281733Z 2818/2918 21016G25KT P6SM SCT020 BKN120
      TEMPO 2818/2819 BKN020 BKN120
     FM282200 22014G24KT P6SM VCTS BKN035CB
      TEMPO 2822/2901 -TSRA SCT025 BKN035CB
     FM290200 23014G24KT P6SM FEW050
     FM290600 25010KT P6SM SKC WS010/25040KT
     FM291400 26020G35KT P6SM SKC=



000
FTUS43 KDLH 281733
TAFINL
TAF
KINL 281733Z 2818/2918 14011KT 4SM -RA BR BKN015 OVC020
     FM281900 18012G20KT P6SM SCT020 BKN035 BKN110
     FM282100 20014G24KT P6SM VCSH SCT030 BKN035
      TEMPO 2821/2823 -TSRA SCT025 BKN035CB
     FM282300 21014G24KT P6SM SCT040
     FM290800 23010KT P6SM OVC050 WS010/24040KT
     FM291300 24015KT P6SM -RA OVC030=



000
FTUS43 KDLH 281733
TAFHYR
TAF
KHYR 281733Z 2818/2918 18013G22KT P6SM -RA SCT025 BKN120
     FM290100 20012G20KT P6SM VCTS SCT040CB
      TEMPO 2901/2904 -TSRA SCT025 BKN040CB
     FM290400 22010KT P6SM FEW050
     FM290800 24007KT P6SM SKC WS010/26040KT
     FM291400 24014G30KT P6SM SKC=



000
FTUS43 KDLH 281733
TAFINL
TAF
KINL 281733Z 2818/2918 14011KT 4SM -RA BR BKN015 OVC020
     FM281900 18012G20KT P6SM SCT020 BKN035 BKN110
     FM282100 20014G24KT P6SM VCSH SCT030 BKN035
      TEMPO 2821/2823 -TSRA SCT025 BKN035CB
     FM282300 21014G24KT P6SM SCT040
     FM290800 23010KT P6SM OVC050 WS010/24040KT
     FM291300 24015KT P6SM -RA OVC030=



000
FTUS43 KDLH 281733
TAFDLH
TAF
KDLH 281733Z 2818/2918 21016G25KT P6SM SCT020 BKN120
      TEMPO 2818/2819 BKN020 BKN120
     FM282200 22014G24KT P6SM VCTS BKN035CB
      TEMPO 2822/2901 -TSRA SCT025 BKN035CB
     FM290200 23014G24KT P6SM FEW050
     FM290600 25010KT P6SM SKC WS010/25040KT
     FM291400 26020G35KT P6SM SKC=



000
FTUS43 KDLH 281733
TAFBRD
TAF
KBRD 281733Z 2818/2918 20014G25KT P6SM SCT025 OVC035
     FM281900 22012G22KT P6SM VCSH SCT030 BKN035
      TEMPO 2819/2821 BKN030
     FM282300 24014G24KT P6SM SKC
     FM290500 24010KT P6SM SKC WS010/26045KT
     FM291400 26018G35KT P6SM SKC=



000
FTUS43 KDLH 281733
TAFHYR
TAF
KHYR 281733Z 2818/2918 18013G22KT P6SM -RA SCT025 BKN120
     FM290100 20012G20KT P6SM VCTS SCT040CB
      TEMPO 2901/2904 -TSRA SCT025 BKN040CB
     FM290400 22010KT P6SM FEW050
     FM290800 24007KT P6SM SKC WS010/26040KT
     FM291400 24014G30KT P6SM SKC=



000
FTUS43 KDLH 281733
TAFBRD
TAF
KBRD 281733Z 2818/2918 20014G25KT P6SM SCT025 OVC035
     FM281900 22012G22KT P6SM VCSH SCT030 BKN035
      TEMPO 2819/2821 BKN030
     FM282300 24014G24KT P6SM SKC
     FM290500 24010KT P6SM SKC WS010/26045KT
     FM291400 26018G35KT P6SM SKC=



000
FTUS43 KDLH 281700 AAB
TAFDLH
TAF AMD
KDLH 281700Z 2817/2912 20016G25KT P6SM SCT020 BKN120
     FM282100 21014G24KT P6SM VCTS BKN040CB
      TEMPO 2822/2901 -TSRA SCT025 BKN040CB
     FM290100 22014G21KT P6SM FEW050
     FM290500 25013KT P6SM SKC=



000
FTUS43 KDLH 281700 AAB
TAFDLH
TAF AMD
KDLH 281700Z 2817/2912 20016G25KT P6SM SCT020 BKN120
     FM282100 21014G24KT P6SM VCTS BKN040CB
      TEMPO 2822/2901 -TSRA SCT025 BKN040CB
     FM290100 22014G21KT P6SM FEW050
     FM290500 25013KT P6SM SKC=



000
FTUS43 KDLH 281608 AAA
TAFINL
TAF AMD
KINL 281608Z 2816/2912 14011KT P6SM -RA SCT015 BKN025 OVC110
     FM281800 18012G20KT P6SM SCT020 BKN035 BKN110
     FM282000 20014G24KT P6SM VCSH SCT030
      TEMPO 2820/2822 -TSRA SCT025 BKN035CB
     FM282300 21014G24KT P6SM FEW050
     FM290900 23012G20KT P6SM OVC050=



000
FTUS43 KDLH 281551 AAC
TAFDLH
TAF AMD
KDLH 281551Z 2816/2912 16012G20KT P6SM SCT012 BKN120
      TEMPO 2816/2817 BKN020 BKN120
     FM281900 18015G23KT P6SM SCT040 SCT100
     FM282100 19013G23KT P6SM VCTS BKN040CB
      TEMPO 2822/2901 -TSRA SCT025 BKN040CB
     FM290100 22014G21KT P6SM FEW050
     FM290500 25013KT P6SM SKC=



000
FTUS43 KDLH 281547 AAB
TAFHYR
TAF AMD
KHYR 281547Z 2816/2912 17009G18KT P6SM -RA SCT015 BKN040 BKN100
     FM281800 18013G23KT P6SM SCT035 BKN100
     FM290000 20012G20KT P6SM VCTS SCT040CB
      TEMPO 2900/2903 -TSRA SCT025 BKN040CB
     FM290300 23012KT P6SM FEW040
     FM290600 25007KT P6SM SKC=



000
FTUS43 KDLH 281536 AAC
TAFBRD
TAF AMD
KBRD 281536Z 2816/2912 20015G25KT P6SM BKN015 OVC025
     FM281700 21014G23KT P6SM SCT020 BKN035
     FM281900 23012G20KT P6SM VCSH SCT030
      TEMPO 2819/2821 -TSRA SCT025 BKN040CB
     FM282300 24014G24KT P6SM SKC
     FM290200 25012KT P6SM SKC=



000
FTUS43 KDLH 281507 AAB
TAFDLH
TAF AMD
KDLH 281507Z 2815/2912 15015G25KT P6SM BKN010 OVC015
     FM281700 16015G23KT P6SM -RA SCT015 BKN035 OVC120
     FM281900 18015G23KT P6SM SCT040 SCT100
     FM282100 19013G23KT P6SM VCTS BKN040CB
      TEMPO 2822/2901 -TSRA SCT025 BKN040CB
     FM290100 22014G21KT P6SM FEW050
     FM290500 25013KT P6SM SKC=



000
FTUS43 KDLH 281507 AAB
TAFDLH
TAF AMD
KDLH 281507Z 2815/2912 15015G25KT P6SM BKN010 OVC015
     FM281700 16015G23KT P6SM -RA SCT015 BKN035 OVC120
     FM281900 18015G23KT P6SM SCT040 SCT100
     FM282100 19013G23KT P6SM VCTS BKN040CB
      TEMPO 2822/2901 -TSRA SCT025 BKN040CB
     FM290100 22014G21KT P6SM FEW050
     FM290500 25013KT P6SM SKC=



000
FTUS43 KDLH 281414 AAA
TAFHYR
TAF AMD
KHYR 281414Z 2814/2912 18009G18KT P6SM -RA BKN020 OVC060
     FM281600 17015G25KT P6SM VCTS BKN050CB
      TEMPO 2818/2822 5SM -TSRA BKN030CB
     FM290000 20010KT P6SM VCTS BKN060CB
     FM290600 25010KT P6SM SKC=



000
FTUS43 KDLH 281408 CCA
TAFBRD
TAF COR
KBRD 281408Z 2814/2912 20012G24KT P6SM OVC009
      TEMPO 2815/2816 SCT010 BKN035
     FM281600 18015G25KT P6SM VCTS SCT020 BKN050CB
      TEMPO 2819/2823 4SM TSRA BKN040CB
     FM290000 22012KT P6SM SKC=



000
FTUS43 KDLH 281408 CCA
TAFBRD
TAF COR
KBRD 281408Z 2814/2912 20012G24KT P6SM OVC009
      TEMPO 2815/2816 SCT010 BKN035
     FM281600 18015G25KT P6SM VCTS SCT020 BKN050CB
      TEMPO 2819/2823 4SM TSRA BKN040CB
     FM290000 22012KT P6SM SKC=



000
FTUS43 KDLH 281401 AAB
TAFBRD
TAF AMD
KBRD 281401Z 2814/2912 12012G22KT P6SM OVC009
      TEMPO 2815/2816 SCT010 BKN035
     FM281600 18015G25KT P6SM VCTS SCT020 BKN050CB
      TEMPO 2819/2823 4SM TSRA BKN040CB
     FM290000 22012KT P6SM SKC=



000
FTUS43 KDLH 281352 AAB
TAFDLH
TAF AMD
KDLH 281352Z 2814/2912 13009KT P6SM -RA OVC012
     FM281600 16015KT P6SM -RA SCT015 OVC040
     FM281800 18012G20KT P6SM VCSH BKN050 BKN100
     FM282000 18012G20KT P6SM VCTS BKN050CB
      TEMPO 2821/2824 -TSRA BKN050CB
     FM290000 22015KT P6SM FEW050
     FM290500 25015KT P6SM SKC=



000
FTUS43 KDLH 281236 AAA
TAFBRD
TAF AMD
KBRD 281236Z 2813/2912 12012G22KT P6SM VCSH FEW008
     FM281800 18015G25KT P6SM VCTS SCT020 BKN050CB
      TEMPO 2819/2823 4SM TSRA BKN040CB
     FM290000 22012KT P6SM SKC=



000
FTUS43 KDLH 281236 AAA
TAFBRD
TAF AMD
KBRD 281236Z 2813/2912 12012G22KT P6SM VCSH FEW008
     FM281800 18015G25KT P6SM VCTS SCT020 BKN050CB
      TEMPO 2819/2823 4SM TSRA BKN040CB
     FM290000 22012KT P6SM SKC=



000
FTUS43 KDLH 281132
TAFINL
TAF
KINL 281132Z 2812/2912 14011KT P6SM VCSH BKN100
      TEMPO 2813/2815 -TSRA BKN014CB
     FM281500 16011KT P6SM VCSH OVC100
     FM281800 18012G20KT P6SM VCTS BKN100CB
      TEMPO 2818/2822 4SM TSRA OVC050CB
     FM290200 23012KT P6SM VCSH BKN100=



000
FTUS43 KDLH 281132
TAFINL
TAF
KINL 281132Z 2812/2912 14011KT P6SM VCSH BKN100
      TEMPO 2813/2815 -TSRA BKN014CB
     FM281500 16011KT P6SM VCSH OVC100
     FM281800 18012G20KT P6SM VCTS BKN100CB
      TEMPO 2818/2822 4SM TSRA OVC050CB
     FM290200 23012KT P6SM VCSH BKN100=



000
FTUS43 KDLH 281132
TAFDLH
TAF
KDLH 281132Z 2812/2912 12008KT P6SM SCT019
     FM281500 16015KT P6SM VCSH OVC100
     FM281800 18012G20KT P6SM VCTS BKN100CB
      TEMPO 2818/2822 4SM TSRA OVC050CB
     FM282200 17012G21KT P6SM VCSH BKN050 PROB30 2822/2902 4SM TSRA
      OVC040CB
     FM290400 25015KT P6SM SKC=



000
FTUS43 KDLH 281132
TAFHYR
TAF
KHYR 281132Z 2812/2912 14005KT P6SM BKN250
     FM281700 17015G25KT P6SM VCTS BKN050CB
      TEMPO 2818/2822 5SM -TSRA BKN030CB
     FM290000 20010KT P6SM VCTS BKN060CB
     FM290600 25010KT P6SM SKC=



000
FTUS43 KDLH 281132
TAFBRD
TAF
KBRD 281132Z 2812/2912 17009KT P6SM VCSH OVC050
      TEMPO 2812/2813 4SM TSRA BR BKN007 OVC020CB
     FM281500 18015G24KT P6SM VCTS SCT020 BKN050CB
      TEMPO 2819/2823 4SM TSRA BKN040CB
     FM290000 22012KT P6SM SKC=



000
FTUS43 KDLH 280851 AAA
TAFBRD
TAF AMD
KBRD 280851Z 2809/2906 15008KT P6SM SCT012 BKN035
      TEMPO 2809/2811 BKN012
     FM281100 17009KT P6SM VCSH SCT007 OVC050
      TEMPO 2811/2815 4SM TSRA BR BKN007 OVC020CB
     FM281500 18015G24KT P6SM VCTS SCT020 BKN050CB
     FM290000 22012KT P6SM SCT100=



000
FTUS43 KDLH 280526
TAFINL
TAF
KINL 280526Z 2806/2906 16005KT P6SM SKC
     FM281500 16011KT P6SM VCSH OVC100
     FM281800 18012G20KT P6SM VCTS BKN100CB
      TEMPO 2818/2822 4SM TSRA OVC050CB
     FM290200 23012KT P6SM VCSH BKN100=



000
FTUS43 KDLH 280526
TAFDLH
TAF
KDLH 280526Z 2806/2906 12004KT P6SM FEW050
     FM281500 16015KT P6SM VCSH OVC100
     FM281800 18012G20KT P6SM VCTS BKN100CB
      TEMPO 2818/2822 4SM TSRA OVC050CB
     FM290200 17012G21KT P6SM VCSH BKN050=



000
FTUS43 KDLH 280526
TAFHYR
TAF
KHYR 280526Z 2806/2906 13005KT P6SM SKC
     FM281600 17010G18KT P6SM VCTS SCT030 BKN050CB
      TEMPO 2818/2822 5SM -TSRA BKN030CB=



000
FTUS43 KDLH 280526
TAFBRD
TAF
KBRD 280526Z 2806/2906 14007KT P6SM SKC
     FM281300 17009KT P6SM VCSH SCT007 OVC050
      TEMPO 2813/2817 4SM TSRA BR BKN007 OVC020CB
     FM281700 18015G24KT P6SM VCTS SCT020 BKN050CB
     FM290000 22012KT P6SM SCT100=



000
FTUS43 KDLH 272333
TAFINL
TAF
KINL 272333Z 2800/2824 VRB03KT P6SM BKN080
     FM281000 13005KT P6SM VCSH SCT025 BKN040
     FM281300 14007KT P6SM -SHRA OVC040
     FM281600 18012G20KT P6SM VCTS BKN050CB=



000
FTUS43 KDLH 272333
TAFBRD
TAF
KBRD 272333Z 2800/2824 15010KT P6SM FEW070
     FM280200 15004KT P6SM FEW250
     FM280900 14004KT P6SM VCTS SCT025 BKN040CB
     FM281300 15008KT P6SM VCSH SCT007 OVC020
     FM281700 18015G24KT P6SM VCTS SCT020 BKN050CB=



000
FTUS43 KDLH 272333
TAFDLH
TAF
KDLH 272333Z 2800/2824 12007KT P6SM FEW035
     FM281100 13007KT P6SM VCSH SCT025 BKN040
     FM281700 18012G20KT P6SM VCSH SCT040
     FM282100 17016G24KT P6SM VCTS BKN050CB=



000
FTUS43 KDLH 272333
TAFHYR
TAF
KHYR 272333Z 2800/2824 16010KT P6SM SCT050
     FM280200 15003KT P6SM SKC
     FM281200 15005KT P6SM VCSH SCT025 SCT150
     FM281700 17010G18KT P6SM VCTS SCT030 BKN050CB=



000
FTUS43 KDLH 272018 AAB
TAFBRD
TAF AMD
KBRD 272018Z 2720/2818 15010G17KT P6SM SCT050
     FM280200 15004KT P6SM FEW250
     FM280900 14004KT P6SM VCTS SCT025 BKN040CB
     FM281300 15008KT P6SM VCSH SCT007 OVC020
     FM281700 18015G24KT P6SM SCT020=



000
FTUS43 KDLH 272018 AAB
TAFHYR
TAF AMD
KHYR 272018Z 2720/2818 16011KT P6SM FEW040
     FM280200 15003KT P6SM SKC
     FM281200 15005KT P6SM VCSH SCT025 SCT150
     FM281700 17010KT P6SM SCT030=



000
FTUS43 KDLH 272017 AAB
TAFINL
TAF AMD
KINL 272017Z 2720/2818 15010KT P6SM FEW040
     FM280200 13004KT P6SM SKC
     FM281000 13005KT P6SM VCSH SCT025 BKN040
     FM281300 14007KT P6SM -SHRA OVC040
     FM281600 18012G20KT P6SM VCSH SCT030=



000
FTUS43 KDLH 272016 AAB
TAFDLH
TAF AMD
KDLH 272016Z 2720/2818 15012KT P6SM FEW040
     FM280100 12005KT P6SM SKC
     FM281100 13007KT P6SM VCSH SCT025 BKN040
     FM281700 18012G20KT P6SM SCT040=



000
FTUS43 KDLH 271903 AAA
TAFHYR
TAF AMD
KHYR 271903Z 2719/2818 16009KT P6SM FEW040
     FM280200 15003KT P6SM SKC
     FM281200 15005KT P6SM VCSH SCT025 SCT150
     FM281700 17010KT P6SM SCT030=



000
FTUS43 KDLH 271902 AAA
TAFINL
TAF AMD
KINL 271902Z 2719/2818 15013KT P6SM FEW040
     FM280200 13004KT P6SM SKC
     FM281000 13005KT P6SM VCSH SCT025 BKN040
     FM281300 14007KT P6SM -SHRA OVC040
     FM281600 18012G20KT P6SM VCSH SCT030=



000
FTUS43 KDLH 271901 AAA
TAFBRD
TAF AMD
KBRD 271901Z 2719/2818 14010KT P6SM SCT035 BKN050
     FM280200 15004KT P6SM FEW250
     FM280900 14004KT P6SM VCTS SCT025 BKN040CB
     FM281300 15008KT P6SM VCSH SCT007 OVC020
     FM281700 18015G24KT P6SM SCT020=



000
FTUS43 KDLH 271901 AAA
TAFDLH
TAF AMD
KDLH 271901Z 2719/2818 15013KT P6SM FEW030
     FM280100 12005KT P6SM SKC
     FM281100 13007KT P6SM VCSH SCT025 BKN040
     FM281700 18012G20KT P6SM SCT040=



000
FTUS43 KDLH 271901 AAA
TAFDLH
TAF AMD
KDLH 271901Z 2719/2818 15013KT P6SM FEW030
     FM280100 12005KT P6SM SKC
     FM281100 13007KT P6SM VCSH SCT025 BKN040
     FM281700 18012G20KT P6SM SCT040=



000
FTUS43 KDLH 271901 AAA
TAFBRD
TAF AMD
KBRD 271901Z 2719/2818 14010KT P6SM SCT035 BKN050
     FM280200 15004KT P6SM FEW250
     FM280900 14004KT P6SM VCTS SCT025 BKN040CB
     FM281300 15008KT P6SM VCSH SCT007 OVC020
     FM281700 18015G24KT P6SM SCT020=



000
FTUS43 KDLH 271731
TAFDLH
TAF
KDLH 271731Z 2718/2818 17011KT P6SM FEW030
     FM280100 12005KT P6SM SKC
     FM281100 13007KT P6SM VCSH SCT025 BKN040
     FM281700 18012G20KT P6SM SCT040=



000
FTUS43 KDLH 271731
TAFINL
TAF
KINL 271731Z 2718/2818 16009KT P6SM FEW040
     FM280200 13004KT P6SM SKC
     FM281000 13005KT P6SM VCSH SCT025 BKN040
     FM281300 14007KT P6SM -SHRA OVC040
     FM281600 18012G20KT P6SM VCSH SCT030=



000
FTUS43 KDLH 271731
TAFBRD
TAF
KBRD 271731Z 2718/2818 15010G17KT P6SM SCT030 BKN040
     FM280200 15004KT P6SM FEW250
     FM280900 14004KT P6SM VCTS SCT025 BKN040CB
     FM281300 15008KT P6SM VCSH SCT007 OVC020
     FM281700 18015G24KT P6SM SCT020=



000
FTUS43 KDLH 271731
TAFHYR
TAF
KHYR 271731Z 2718/2818 15006KT P6SM FEW040
     FM272000 16011KT P6SM SCT050
     FM280200 15003KT P6SM SKC
     FM281200 15005KT P6SM VCSH SCT025 SCT150
     FM281700 17010KT P6SM SCT030=



000
FTUS43 KDLH 271630 AAB
TAFBRD
TAF AMD
KBRD 271630Z 2717/2812 13010G17KT P6SM SCT025 BKN035
     FM272200 17012G19KT P6SM SCT050
     FM280200 15009KT P6SM VCTS BKN050CB
     FM280900 15008KT 5SM -TSRA SCT020 BKN030CB=



000
FTUS43 KDLH 271630 AAB
TAFBRD
TAF AMD
KBRD 271630Z 2717/2812 13010G17KT P6SM SCT025 BKN035
     FM272200 17012G19KT P6SM SCT050
     FM280200 15009KT P6SM VCTS BKN050CB
     FM280900 15008KT 5SM -TSRA SCT020 BKN030CB=



000
FTUS43 KDLH 271510 AAA
TAFHYR
TAF AMD
KHYR 271510Z 2715/2812 17005KT P6SM SKC
     FM271900 16010KT P6SM FEW050
     FM280200 15003KT P6SM SKC=



000
FTUS43 KDLH 271508 AAA
TAFINL
TAF AMD
KINL 271508Z 2715/2812 17004KT P6SM FEW250
     FM271800 17010KT P6SM FEW050
     FM280200 13004KT P6SM SKC
     FM280800 13005KT P6SM VCSH SCT030 BKN040=



000
FTUS43 KDLH 271508 AAA
TAFINL
TAF AMD
KINL 271508Z 2715/2812 17004KT P6SM FEW250
     FM271800 17010KT P6SM FEW050
     FM280200 13004KT P6SM SKC
     FM280800 13005KT P6SM VCSH SCT030 BKN040=



000
FTUS43 KDLH 271433 AAB
TAFDLH
TAF AMD
KDLH 271433Z 2715/2812 21005KT P6SM FEW030
     FM271700 16009G16KT P6SM SCT050
     FM280100 12005KT P6SM SKC
     FM280800 14007KT P6SM SCT040=



000
FTUS43 KDLH 271433 AAB
TAFDLH
TAF AMD
KDLH 271433Z 2715/2812 21005KT P6SM FEW030
     FM271700 16009G16KT P6SM SCT050
     FM280100 12005KT P6SM SKC
     FM280800 14007KT P6SM SCT040=



000
FTUS43 KDLH 271132
TAFHYR
TAF
KHYR 271132Z 2712/2812 15003KT P6SM SKC
     FM271900 16008G17KT P6SM FEW060
     FM280200 15004KT P6SM SCT040=



000
FTUS43 KDLH 271132
TAFDLH
TAF
KDLH 271132Z 2712/2812 VRB04KT P6SM FEW050
     FM271600 16010G19KT P6SM SKC
     FM280300 VRB05KT P6SM SKC
     FM280800 14007KT P6SM SCT040=



000
FTUS43 KDLH 271132
TAFINL
TAF
KINL 271132Z 2712/2812 VRB03KT P6SM SCT200
     FM271500 19007KT P6SM FEW150
     FM271800 17009G16KT P6SM SKC
     FM280600 14006KT P6SM SCT030 BKN040=



000
FTUS43 KDLH 271132
TAFINL
TAF
KINL 271132Z 2712/2812 VRB03KT P6SM SCT200
     FM271500 19007KT P6SM FEW150
     FM271800 17009G16KT P6SM SKC
     FM280600 14006KT P6SM SCT030 BKN040=



000
FTUS43 KDLH 271132
TAFDLH
TAF
KDLH 271132Z 2712/2812 VRB04KT P6SM FEW050
     FM271600 16010G19KT P6SM SKC
     FM280300 VRB05KT P6SM SKC
     FM280800 14007KT P6SM SCT040=



000
FTUS43 KDLH 271132
TAFBRD
TAF
KBRD 271132Z 2712/2812 VRB03KT P6SM SKC
      TEMPO 2712/2713 3SM BR
     FM271400 15010G20KT P6SM SCT030
     FM280200 15009KT P6SM VCTS BKN030CB
     FM280900 15008KT 5SM -TSRA SCT020 BKN030CB=



000
FTUS43 KDLH 271132
TAFHYR
TAF
KHYR 271132Z 2712/2812 15003KT P6SM SKC
     FM271900 16008G17KT P6SM FEW060
     FM280200 15004KT P6SM SCT040=



000
FTUS43 KDLH 271132
TAFBRD
TAF
KBRD 271132Z 2712/2812 VRB03KT P6SM SKC
      TEMPO 2712/2713 3SM BR
     FM271400 15010G20KT P6SM SCT030
     FM280200 15009KT P6SM VCTS BKN030CB
     FM280900 15008KT 5SM -TSRA SCT020 BKN030CB=



000
FTUS43 KDLH 271101 AAA
TAFBRD
TAF AMD
KBRD 271101Z 2711/2806 VRB03KT P6SM SKC
      TEMPO 2711/2712 2SM BR
     FM271400 15010G20KT P6SM SCT030
     FM280200 15009KT P6SM BKN030=



000
FTUS43 KDLH 271101 AAA
TAFBRD
TAF AMD
KBRD 271101Z 2711/2806 VRB03KT P6SM SKC
      TEMPO 2711/2712 2SM BR
     FM271400 15010G20KT P6SM SCT030
     FM280200 15009KT P6SM BKN030=



000
FTUS43 KDLH 270901 AAA
TAFINL
TAF AMD
KINL 270901Z 2709/2806 VRB03KT P6SM SCT200
     FM271500 19008KT P6SM FEW150
     FM271800 17012G20KT P6SM SKC
     FM280200 14006KT P6SM BKN040=



000
FTUS43 KDLH 270901 AAA
TAFINL
TAF AMD
KINL 270901Z 2709/2806 VRB03KT P6SM SCT200
     FM271500 19008KT P6SM FEW150
     FM271800 17012G20KT P6SM SKC
     FM280200 14006KT P6SM BKN040=



000
FTUS43 KDLH 270523
TAFDLH
TAF
KDLH 270523Z 2706/2806 VRB04KT P6SM FEW050
      TEMPO 2708/2712 2SM BR FEW005
     FM271600 16010G19KT P6SM SKC
     FM280300 VRB05KT P6SM SKC=



000
FTUS43 KDLH 270523
TAFBRD
TAF
KBRD 270523Z 2706/2806 VRB03KT P6SM SKC
      TEMPO 2708/2712 4SM BR
     FM271400 15010G20KT P6SM SCT030
     FM280200 15009KT P6SM BKN030=



000
FTUS43 KDLH 270523
TAFINL
TAF
KINL 270523Z 2706/2806 VRB03KT P6SM SKC
      TEMPO 2709/2711 3SM BR SCT002
     FM271500 19008KT P6SM SKC
     FM271800 17012G20KT P6SM SKC
     FM280200 14006KT P6SM BKN040=



000
FTUS43 KDLH 270523
TAFHYR
TAF
KHYR 270523Z 2706/2806 VRB03KT P6SM SKC
      TEMPO 2709/2711 4SM BR SCT002
     FM271500 16008KT P6SM SKC
     FM272000 16008G17KT P6SM FEW060
     FM280200 15004KT P6SM SCT040=



000
FTUS43 KDLH 270523
TAFINL
TAF
KINL 270523Z 2706/2806 VRB03KT P6SM SKC
      TEMPO 2709/2711 3SM BR SCT002
     FM271500 19008KT P6SM SKC
     FM271800 17012G20KT P6SM SKC
     FM280200 14006KT P6SM BKN040=



000
FTUS43 KDLH 270523
TAFHYR
TAF
KHYR 270523Z 2706/2806 VRB03KT P6SM SKC
      TEMPO 2709/2711 4SM BR SCT002
     FM271500 16008KT P6SM SKC
     FM272000 16008G17KT P6SM FEW060
     FM280200 15004KT P6SM SCT040=



000
FTUS43 KDLH 270523
TAFBRD
TAF
KBRD 270523Z 2706/2806 VRB03KT P6SM SKC
      TEMPO 2708/2712 4SM BR
     FM271400 15010G20KT P6SM SCT030
     FM280200 15009KT P6SM BKN030=



000
FTUS43 KDLH 270523
TAFDLH
TAF
KDLH 270523Z 2706/2806 VRB04KT P6SM FEW050
      TEMPO 2708/2712 2SM BR FEW005
     FM271600 16010G19KT P6SM SKC
     FM280300 VRB05KT P6SM SKC=



000
FTUS43 KDLH 262334
TAFDLH
TAF
KDLH 262334Z 2700/2724 19005KT P6SM FEW050
      TEMPO 2708/2712 2SM BR FEW005
     FM271600 16015KT P6SM SKC
     FM271800 14008KT P6SM FEW060=



000
FTUS43 KDLH 262334
TAFINL
TAF
KINL 262334Z 2700/2724 26005KT P6SM VCSH SCT050
     FM270300 VRB03KT P6SM SKC
      TEMPO 2709/2711 3SM BR SCT002
     FM271400 17010KT P6SM SKC
     FM271800 19014G20KT P6SM SKC=



000
FTUS43 KDLH 262334
TAFHYR
TAF
KHYR 262334Z 2700/2724 18004KT P6SM SKC
      TEMPO 2709/2711 4SM BR SCT002
     FM271500 16008KT P6SM SKC
     FM272000 17014KT P6SM FEW060=



000
FTUS43 KDLH 262334
TAFBRD
TAF
KBRD 262334Z 2700/2724 VRB05KT P6SM SKC
     FM270300 VRB03KT P6SM SKC
     FM271400 16010KT P6SM SKC
     FM271800 17014G20KT P6SM FEW050=



000
FTUS43 KDLH 261740
TAFBRD
TAF
KBRD 261740Z 2618/2718 12008KT P6SM BKN110
     FM270100 15003KT P6SM SKC
     FM270600 VRB02KT 4SM BR SKC
     FM270800 00000KT 2SM BR SCT002
     FM271200 14005KT P6SM FEW100=



000
FTUS43 KDLH 261740
TAFHYR
TAF
KHYR 261740Z 2618/2718 17005KT P6SM BKN120
     FM270100 18004KT P6SM SKC
     FM270600 00000KT 4SM BR SKC
     FM270800 00000KT 1 1/2SM BR SCT002
     FM271300 15005KT P6SM SCT100=



000
FTUS43 KDLH 261740
TAFDLH
TAF
KDLH 261740Z 2618/2718 21005KT P6SM FEW030 SCT100
     FM270200 16004KT P6SM SKC
     FM270800 10003KT 3SM BR FEW005
     FM271100 13005KT P6SM SCT100=



000
FTUS43 KDLH 261740
TAFINL
TAF
KINL 261740Z 2618/2718 27003KT P6SM SCT090
     FM262200 30006KT P6SM VCTS SCT080CB
     FM270200 VRB03KT P6SM SKC
     FM270900 00000KT 4SM BR SKC
     FM271100 20004KT P6SM SCT120=



000
FTUS43 KDLH 261740
TAFBRD
TAF
KBRD 261740Z 2618/2718 12008KT P6SM BKN110
     FM270100 15003KT P6SM SKC
     FM270600 VRB02KT 4SM BR SKC
     FM270800 00000KT 2SM BR SCT002
     FM271200 14005KT P6SM FEW100=



000
FTUS43 KDLH 261740
TAFHYR
TAF
KHYR 261740Z 2618/2718 17005KT P6SM BKN120
     FM270100 18004KT P6SM SKC
     FM270600 00000KT 4SM BR SKC
     FM270800 00000KT 1 1/2SM BR SCT002
     FM271300 15005KT P6SM SCT100=



000
FTUS43 KDLH 261740
TAFDLH
TAF
KDLH 261740Z 2618/2718 21005KT P6SM FEW030 SCT100
     FM270200 16004KT P6SM SKC
     FM270800 10003KT 3SM BR FEW005
     FM271100 13005KT P6SM SCT100=



000
FTUS43 KDLH 261740
TAFINL
TAF
KINL 261740Z 2618/2718 27003KT P6SM SCT090
     FM262200 30006KT P6SM VCTS SCT080CB
     FM270200 VRB03KT P6SM SKC
     FM270900 00000KT 4SM BR SKC
     FM271100 20004KT P6SM SCT120=



000
FTUS43 KDLH 261126
TAFBRD
TAF
KBRD 261126Z 2612/2712 18003KT P6SM FEW100
     FM261800 17008KT P6SM SCT050 SCT100
     FM270100 14003KT P6SM SKC
     FM270600 VRB02KT 2SM BR SCT005=



000
FTUS43 KDLH 261126
TAFHYR
TAF
KHYR 261126Z 2612/2712 00000KT P6SM SCT100
     FM261300 18007KT P6SM BKN100
     FM270300 VRB03KT P6SM SKC
     FM270800 00000KT 2SM BR FEW007=



000
FTUS43 KDLH 261126
TAFINL
TAF
KINL 261126Z 2612/2712 00000KT P6SM SKC
     FM261300 21009KT P6SM SCT060
     FM270300 VRB03KT P6SM SKC=



000
FTUS43 KDLH 261126
TAFINL
TAF
KINL 261126Z 2612/2712 00000KT P6SM SKC
     FM261300 21009KT P6SM SCT060
     FM270300 VRB03KT P6SM SKC=



000
FTUS43 KDLH 261126
TAFHYR
TAF
KHYR 261126Z 2612/2712 00000KT P6SM SCT100
     FM261300 18007KT P6SM BKN100
     FM270300 VRB03KT P6SM SKC
     FM270800 00000KT 2SM BR FEW007=



000
FTUS43 KDLH 261126
TAFDLH
TAF
KDLH 261126Z 2612/2712 29004KT P6SM SCT100
     FM261800 20008KT P6SM SCT090
     FM270200 16004KT P6SM SKC
     FM270800 10003KT 3SM BR FEW005=



000
FTUS43 KDLH 261126
TAFBRD
TAF
KBRD 261126Z 2612/2712 18003KT P6SM FEW100
     FM261800 17008KT P6SM SCT050 SCT100
     FM270100 14003KT P6SM SKC
     FM270600 VRB02KT 2SM BR SCT005=



000
FTUS43 KDLH 261126
TAFDLH
TAF
KDLH 261126Z 2612/2712 29004KT P6SM SCT100
     FM261800 20008KT P6SM SCT090
     FM270200 16004KT P6SM SKC
     FM270800 10003KT 3SM BR FEW005=



000
FTUS43 KDLH 261102 AAB
TAFINL
TAF AMD
KINL 261102Z 2611/2706 00000KT 6SM BR SKC
     FM261300 21009KT P6SM SCT060
     FM270300 VRB03KT P6SM SKC=



    US Dept of Commerce
    National Oceanic and Atmospheric Administration
    National Weather Service
    1325 East West Highway
    Silver Spring, MD 20910
    Page Author: NWS Internet Services Team
Disclaimer
Information Quality
Credits
Glossary
Privacy Policy
Freedom of Information Act (FOIA)
About Us
Career Opportunities